Chicago, Illinois
Traffic Map
Current Weather Conditions
Chicago, Illinois
Broken Clouds
Broken Clouds
77°
Feels Like: 78°
Wind Chill: 77° Ceiling: 15000
Heat Index: 78° Visibility: 10mi
Dew Point: 55° Wind: 14mph
Humidity: 46% Direction: 210° (SSW)
Pressure: 29.91in Gusts: 0mph
Raw Report DataKMDW 302353Z 21012KT 10SM FEW065 SCT100 BKN150 BKN250 25/13 A2991 RMK AO2 SLP120 T02500128 10261 20244 58011
Traffic Incident Summary
Active as of:
Severity:
Category:
InformationThere was an issue retrieving the traffic information for this location. Please try a different location or try again shortly.
Advertisements
Track Severe Weather on mobile